EGEO/OBN METAR and TAF weather

Enter ICAO airport designator
Station Type Date Time Source
EGEO METAR 2020/02/19 14:20 UTC NOAA

EGEO 191420Z 14009KT 110V190 9000 -RA BKN015 06/04 Q1001


Station Type Date Time Source
EGEO Decoded METAR 2020/02/19 14:20 UTC NOAA

Station name not available
Feb 19, 2020 - 09:20 AM EST / 2020.02.19 1420 UTC
Wind: from the SE (140 degrees) at 10 MPH (9 KT) (direction variable):0
Visibility: 5 mile(s):0
Sky conditions: mostly cloudy
Weather: light rain
Temperature: 42 F (6 C)
Dew Point: 39 F (4 C)
Relative Humidity: 86%
Pressure (altimeter): 29.56 in. Hg (1001 hPa)
ob: EGEO 191420Z 14009KT 110V190 9000 -RA BKN015 06/04 Q1001
cycle: 14

Station Type Date Time Source
EGEO TAF UTC NOAA

Error!

Example: see airport list